createdAt,value
2022-09-02T00:01:41.592Z,9.70
2022-09-02T00:04:13.870Z,10.67
2022-09-02T00:06:43.733Z,9.80
2022-09-02T00:09:15.596Z,9.67
2022-09-02T00:11:46.709Z,9.80
2022-09-02T00:14:19.789Z,9.90
2022-09-02T00:16:52.459Z,10.33
2022-09-02T00:19:22.952Z,9.77
2022-09-02T00:21:52.485Z,9.80
2022-09-02T00:24:21.059Z,9.70
2022-09-02T00:26:49.722Z,10.10
2022-09-02T00:29:18.799Z,10.07
2022-09-02T00:31:49.385Z,9.90
2022-09-02T00:34:17.822Z,9.73
2022-09-02T00:36:46.197Z,9.57
2022-09-02T00:39:14.685Z,9.70
2022-09-02T00:41:45.515Z,9.80
2022-09-02T00:44:16.744Z,9.80
2022-09-02T00:46:46.091Z,9.77
2022-09-02T00:49:24.306Z,10.00
2022-09-02T00:51:56.847Z,9.73
2022-09-02T00:54:28.671Z,9.50
2022-09-02T00:56:57.777Z,10.00
2022-09-02T00:59:34.793Z,9.90
2022-09-02T01:02:03.398Z,10.00
2022-09-02T01:04:33.185Z,10.10
2022-09-02T01:07:02.318Z,10.20
2022-09-02T01:09:32.323Z,9.70
2022-09-02T01:12:03.048Z,9.57
2022-09-02T01:14:32.037Z,9.80
2022-09-02T01:17:02.627Z,9.63
2022-09-02T01:19:36.839Z,10.80
2022-09-02T01:22:30.378Z,9.87
2022-09-02T01:25:06.295Z,10.17
2022-09-02T01:27:35.014Z,9.60
2022-09-02T01:30:03.557Z,10.23
2022-09-02T01:32:32.293Z,9.70
2022-09-02T01:35:00.938Z,9.77
2022-09-02T01:37:32.344Z,10.10
2022-09-02T01:40:01.346Z,10.53
2022-09-02T01:42:29.795Z,9.80
2022-09-02T01:44:58.623Z,9.93
2022-09-02T01:47:29.603Z,10.10
2022-09-02T01:49:57.991Z,10.00
2022-09-02T01:52:28.671Z,9.97
2022-09-02T01:54:59.408Z,10.00
2022-09-02T01:57:27.884Z,10.40
2022-09-02T01:59:56.697Z,9.90
2022-09-02T02:02:25.422Z,9.97
2022-09-02T02:04:54.822Z,9.73
2022-09-02T02:07:25.011Z,10.07
2022-09-02T02:09:53.564Z,10.00
2022-09-02T02:12:23.659Z,10.47
2022-09-02T02:14:52.129Z,9.90
2022-09-02T02:17:23.426Z,9.60
2022-09-02T02:19:51.731Z,9.93
2022-09-02T02:22:20.992Z,10.20
2022-09-02T02:24:49.606Z,10.07
2022-09-02T02:27:18.072Z,9.90
2022-09-02T02:29:48.267Z,10.63
2022-09-02T02:32:18.465Z,10.33
2022-09-02T02:34:47.186Z,9.90
2022-09-02T02:37:16.845Z,9.90
2022-09-02T02:39:45.603Z,10.23
2022-09-02T02:42:14.167Z,9.97
2022-09-02T02:44:43.727Z,9.93
2022-09-02T02:47:13.525Z,10.20
2022-09-02T02:49:45.185Z,10.00
2022-09-02T02:52:14.670Z,10.30
2022-09-02T02:54:44.101Z,10.07
2022-09-02T02:57:14.268Z,10.07
2022-09-02T02:59:42.702Z,10.33
2022-09-02T03:02:15.007Z,10.47
2022-09-02T03:04:43.608Z,10.10
2022-09-02T03:07:12.011Z,9.57
2022-09-02T03:09:40.348Z,10.80
2022-09-02T03:12:09.378Z,10.23
2022-09-02T03:14:38.122Z,10.00
2022-09-02T03:17:07.233Z,10.00
2022-09-02T03:19:37.297Z,9.83
2022-09-02T03:22:06.773Z,9.80
2022-09-02T03:24:36.107Z,10.00
2022-09-02T03:27:05.052Z,10.20
2022-09-02T03:29:33.439Z,10.50
2022-09-02T03:32:02.976Z,10.50
2022-09-02T03:34:33.084Z,10.53
2022-09-02T03:37:02.892Z,10.10
2022-09-02T03:39:32.087Z,10.23
2022-09-02T03:42:01.063Z,10.17
2022-09-02T03:44:29.845Z,10.40
2022-09-02T03:46:58.444Z,10.30
2022-09-02T03:49:27.886Z,10.07
2022-09-02T03:51:56.801Z,10.53
2022-09-02T03:54:27.162Z,10.47
2022-09-02T03:56:58.344Z,9.97
2022-09-02T03:59:27.131Z,9.90
2022-09-02T04:01:55.716Z,10.33
2022-09-02T04:04:24.416Z,10.23
2022-09-02T04:06:54.289Z,10.30
2022-09-02T04:09:23.181Z,10.53
2022-09-02T04:11:53.245Z,10.10
2022-09-02T04:14:21.785Z,10.10
2022-09-02T04:16:50.133Z,10.30
2022-09-02T04:19:18.677Z,10.20
2022-09-02T04:21:47.283Z,10.30
2022-09-02T04:24:15.893Z,10.90
2022-09-02T04:26:47.760Z,10.47
2022-09-02T04:29:20.217Z,10.80
2022-09-02T04:31:51.663Z,10.87
2022-09-02T04:34:20.261Z,10.37
2022-09-02T04:36:50.963Z,11.00
2022-09-02T04:39:20.948Z,10.23
2022-09-02T04:41:50.766Z,10.23
2022-09-02T04:44:20.619Z,10.37
2022-09-02T04:46:50.297Z,10.10
2022-09-02T04:49:20.848Z,10.30
2022-09-02T04:51:54.529Z,10.10
2022-09-02T04:54:24.469Z,10.23
2022-09-02T04:56:53.943Z,10.77
2022-09-02T04:59:24.368Z,11.17
2022-09-02T05:02:02.596Z,10.67
2022-09-02T05:04:33.353Z,10.87
2022-09-02T05:07:02.758Z,10.30
2022-09-02T05:09:36.569Z,10.50
2022-09-02T05:12:07.517Z,10.10
2022-09-02T05:14:51.688Z,10.33
2022-09-02T05:17:22.654Z,10.63
2022-09-02T05:19:51.305Z,10.63
2022-09-02T05:22:20.048Z,10.20
2022-09-02T05:24:48.720Z,10.60
2022-09-02T05:27:17.216Z,10.50
2022-09-02T05:29:47.440Z,10.50
2022-09-02T05:32:19.795Z,10.53
2022-09-02T05:34:50.169Z,10.47
2022-09-02T05:37:18.593Z,10.47
2022-09-02T05:39:47.655Z,10.83
2022-09-02T05:42:16.722Z,10.60
2022-09-02T05:44:47.557Z,10.40
2022-09-02T05:47:21.479Z,10.67
2022-09-02T05:49:50.577Z,10.70
2022-09-02T05:52:19.074Z,10.07
2022-09-02T05:54:50.623Z,10.80
2022-09-02T05:57:22.964Z,10.50
2022-09-02T06:00:07.737Z,11.00
2022-09-02T06:02:52.511Z,10.47
2022-09-02T06:05:30.942Z,10.47
2022-09-02T06:08:09.271Z,10.30
2022-09-02T06:10:43.369Z,10.10
2022-09-02T06:13:15.840Z,10.57
2022-09-02T06:15:45.200Z,11.13
2022-09-02T06:18:17.381Z,10.30
2022-09-02T06:20:51.202Z,10.00
2022-09-02T06:23:20.048Z,10.33
2022-09-02T06:25:50.725Z,10.53
2022-09-02T06:28:20.472Z,10.10
2022-09-02T06:30:50.568Z,10.60
2022-09-02T06:33:25.211Z,10.30
2022-09-02T06:35:54.026Z,10.10
2022-09-02T06:38:22.399Z,10.17
2022-09-02T06:40:55.318Z,10.30
2022-09-02T06:43:30.851Z,9.90
2022-09-02T06:46:19.838Z,10.17
2022-09-02T06:48:52.289Z,10.10
2022-09-02T06:51:26.759Z,9.83
2022-09-02T06:53:56.616Z,10.60
2022-09-02T06:56:28.683Z,10.47
2022-09-02T06:58:57.975Z,10.47
2022-09-02T07:01:44.195Z,9.93
2022-09-02T07:04:35.146Z,10.10
2022-09-02T07:07:06.588Z,10.00
2022-09-02T07:09:40.283Z,10.00
2022-09-02T07:12:14.804Z,10.00
2022-09-02T07:14:50.221Z,10.97
2022-09-02T07:17:25.488Z,10.23
2022-09-02T07:20:00.692Z,9.83
2022-09-02T07:22:32.825Z,9.60
2022-09-02T07:25:03.299Z,9.90
2022-09-02T07:27:32.719Z,10.03
2022-09-02T07:30:01.015Z,9.87
2022-09-02T07:32:29.613Z,10.03
2022-09-02T07:34:58.182Z,9.63
2022-09-02T07:37:28.349Z,10.30
2022-09-02T07:39:57.700Z,10.20
2022-09-02T07:44:56.433Z,9.57
2022-09-02T07:47:25.203Z,9.70
2022-09-02T07:52:44.631Z,9.50
2022-09-02T07:55:15.088Z,9.30
2022-09-02T07:57:45.221Z,9.80
2022-09-02T08:00:16.556Z,9.30
2022-09-02T08:02:49.315Z,9.40
2022-09-02T08:05:23.783Z,9.53
2022-09-02T08:07:53.634Z,9.57
2022-09-02T08:10:27.244Z,9.37
2022-09-02T08:12:55.629Z,9.53
2022-09-02T08:15:24.013Z,9.30
2022-09-02T08:17:53.598Z,9.20
2022-09-02T08:20:22.287Z,9.30
2022-09-02T08:22:59.274Z,9.47
2022-09-02T08:25:40.961Z,9.30
2022-09-02T08:28:09.717Z,9.37
2022-09-02T08:30:38.075Z,9.50
2022-09-02T08:33:06.556Z,9.10
2022-09-02T08:35:35.387Z,9.20
2022-09-02T08:38:03.710Z,9.57
2022-09-02T08:40:38.299Z,9.20
2022-09-02T08:43:27.798Z,9.13
2022-09-02T08:45:59.817Z,9.30
2022-09-02T08:48:38.271Z,9.37
2022-09-02T08:51:11.787Z,9.10
2022-09-02T08:53:51.249Z,9.30
2022-09-02T08:56:20.513Z,9.20
2022-09-02T08:58:56.474Z,8.90
2022-09-02T09:01:43.683Z,8.93
2022-09-02T09:04:36.501Z,8.93
2022-09-02T09:07:29.145Z,9.37
2022-09-02T09:10:16.147Z,9.00
2022-09-02T09:13:10.446Z,9.20
2022-09-02T09:15:50.493Z,8.97
2022-09-02T09:18:24.924Z,9.20
2022-09-02T09:20:53.321Z,8.97
2022-09-02T09:23:33.989Z,9.30
2022-09-02T09:26:09.463Z,8.90
2022-09-02T09:28:43.615Z,9.00
2022-09-02T09:31:15.991Z,9.20
2022-09-02T09:33:58.719Z,9.20
2022-09-02T09:36:53.576Z,8.90
2022-09-02T09:39:30.088Z,9.00
2022-09-02T09:42:00.752Z,8.93
2022-09-02T09:44:47.983Z,8.80
2022-09-02T09:47:20.596Z,8.90
2022-09-02T09:49:51.795Z,8.70
2022-09-02T09:52:29.234Z,8.80
2022-09-02T09:55:20.959Z,9.00
2022-09-02T09:57:54.783Z,8.97
2022-09-02T10:00:29.354Z,8.83
2022-09-02T10:03:02.606Z,8.57
2022-09-02T10:05:36.066Z,8.77
2022-09-02T10:08:13.125Z,8.60
2022-09-02T10:10:59.669Z,8.80
2022-09-02T10:13:31.977Z,8.80
2022-09-02T10:16:35.859Z,8.50
2022-09-02T10:19:19.921Z,8.50
2022-09-02T10:22:58.634Z,8.60
2022-09-02T10:25:35.865Z,8.80
2022-09-02T10:28:18.047Z,8.70
2022-09-02T10:30:56.858Z,9.23
2022-09-02T10:33:42.026Z,8.70
2022-09-02T10:36:25.299Z,8.40
2022-09-02T10:38:53.896Z,8.47
2022-09-02T10:44:33.950Z,8.60
2022-09-02T10:47:04.887Z,8.70
2022-09-02T10:49:56.995Z,8.53
2022-09-02T10:52:59.219Z,8.80
2022-09-02T10:55:41.790Z,8.53
2022-09-02T10:58:15.826Z,8.53
2022-09-02T11:00:51.826Z,8.40
2022-09-02T11:03:25.753Z,8.50
2022-09-02T11:05:58.629Z,8.70
2022-09-02T11:08:37.882Z,8.70
2022-09-02T11:11:13.417Z,8.30
2022-09-02T11:13:55.691Z,8.40
2022-09-02T11:16:28.899Z,8.50
2022-09-02T11:19:04.223Z,8.40
2022-09-02T11:21:46.643Z,8.60
2022-09-02T11:24:23.388Z,8.77
2022-09-02T11:27:00.743Z,8.53
2022-09-02T11:29:39.981Z,8.37
2022-09-02T11:32:18.558Z,8.50
2022-09-02T11:34:50.631Z,8.30
2022-09-02T11:37:32.936Z,8.40
2022-09-02T11:40:33.395Z,8.70
2022-09-02T11:43:11.983Z,8.40
2022-09-02T11:46:08.327Z,8.17
2022-09-02T11:49:09.132Z,8.60
2022-09-02T11:52:13.340Z,8.40
2022-09-02T11:54:47.581Z,8.40
2022-09-02T11:57:24.767Z,8.73
2022-09-02T12:00:30.773Z,8.70
2022-09-02T12:03:37.989Z,8.50
2022-09-02T12:06:10.637Z,8.30
2022-09-02T12:09:12.288Z,8.70
2022-09-02T12:11:54.869Z,8.70
2022-09-02T12:15:14.991Z,8.70
2022-09-02T12:18:10.913Z,8.40
2022-09-02T12:21:18.250Z,8.50
2022-09-02T12:24:13.014Z,8.30
2022-09-02T12:27:09.623Z,8.20
2022-09-02T12:29:39.682Z,8.50
2022-09-02T12:32:10.380Z,8.50
2022-09-02T12:34:57.033Z,8.57
2022-09-02T12:37:57.180Z,8.43
2022-09-02T12:40:38.399Z,8.40
2022-09-02T12:43:31.092Z,8.57
2022-09-02T12:46:14.911Z,8.23
2022-09-02T12:48:53.021Z,8.43
2022-09-02T12:51:56.592Z,8.70
2022-09-02T12:54:36.387Z,8.27
2022-09-02T12:57:05.547Z,8.30
2022-09-02T12:59:36.006Z,8.57
2022-09-02T13:02:29.597Z,8.40
2022-09-02T13:05:25.450Z,8.70
2022-09-02T13:08:34.488Z,8.33
2022-09-02T13:11:52.327Z,8.30
2022-09-02T13:14:53.574Z,8.30
2022-09-02T13:17:43.905Z,8.70
2022-09-02T13:20:45.198Z,8.37
2022-09-02T13:23:54.196Z,8.50
2022-09-02T13:26:51.598Z,8.30
2022-09-02T13:29:58.766Z,8.40
2022-09-02T13:32:30.544Z,8.47
2022-09-02T13:35:03.664Z,8.30
2022-09-02T13:37:37.106Z,8.40
2022-09-02T13:40:19.310Z,8.20
2022-09-02T13:42:52.739Z,8.53
2022-09-02T13:45:24.077Z,8.60
2022-09-02T13:47:55.910Z,8.60
2022-09-02T13:50:28.093Z,8.30
2022-09-02T13:55:56.140Z,8.40
2022-09-02T13:58:36.023Z,8.40
2022-09-02T14:01:25.084Z,8.47
2022-09-02T14:03:56.159Z,8.73
2022-09-02T14:06:29.037Z,8.37
2022-09-02T14:09:01.876Z,8.43
2022-09-02T14:11:37.663Z,8.27
2022-09-02T14:14:06.165Z,8.33
2022-09-02T14:16:37.170Z,8.50
2022-09-02T14:19:14.481Z,8.30
2022-09-02T14:21:50.335Z,8.50
2022-09-02T14:24:24.076Z,8.10
2022-09-02T14:26:54.967Z,8.30
2022-09-02T14:29:24.785Z,8.40
2022-09-02T14:32:14.022Z,8.90
2022-09-02T14:34:44.857Z,8.40
2022-09-02T14:37:23.803Z,8.63
2022-09-02T14:40:09.435Z,8.20
2022-09-02T14:42:51.731Z,8.70
2022-09-02T14:45:29.188Z,8.77
2022-09-02T14:48:01.901Z,8.60
2022-09-02T14:50:32.941Z,8.37
2022-09-02T14:53:06.036Z,8.60
2022-09-02T14:55:57.544Z,8.70
2022-09-02T14:58:28.582Z,8.50
2022-09-02T15:01:00.338Z,8.50
2022-09-02T15:03:30.806Z,8.63
2022-09-02T15:05:59.180Z,8.50
2022-09-02T15:08:27.690Z,8.40
2022-09-02T15:11:02.157Z,12.40
2022-09-02T15:13:34.215Z,8.40
2022-09-02T15:16:03.320Z,8.50
2022-09-02T15:18:32.007Z,8.40
2022-09-02T15:21:00.316Z,8.30
2022-09-02T15:23:30.798Z,8.50
2022-09-02T15:26:03.555Z,8.40
2022-09-02T15:28:31.967Z,8.50
2022-09-02T15:31:00.633Z,8.80
2022-09-02T15:33:29.888Z,8.43
2022-09-02T15:36:07.528Z,8.53
2022-09-02T15:38:37.623Z,8.80
2022-09-02T15:41:19.500Z,8.60
2022-09-02T15:43:49.039Z,8.63
2022-09-02T15:46:38.497Z,8.50
2022-09-02T15:49:09.795Z,8.70
2022-09-02T15:51:39.577Z,8.70
2022-09-02T15:54:11.298Z,8.50
2022-09-02T15:56:47.512Z,8.37
2022-09-02T15:59:18.100Z,8.30
2022-09-02T16:01:49.087Z,8.30
2022-09-02T16:04:17.714Z,8.60
2022-09-02T16:06:49.133Z,10.50
2022-09-02T16:09:18.882Z,8.30
2022-09-02T16:11:51.799Z,8.27
2022-09-02T16:14:21.488Z,8.30
2022-09-02T16:16:51.089Z,8.40
2022-09-02T16:19:21.429Z,8.60
2022-09-02T16:21:49.895Z,8.77
2022-09-02T16:24:20.030Z,8.70
2022-09-02T16:26:50.490Z,8.40
2022-09-02T16:29:19.566Z,8.40
2022-09-02T16:32:02.233Z,8.80
2022-09-02T16:34:38.811Z,8.50
2022-09-02T16:37:07.169Z,8.57
2022-09-02T16:39:35.531Z,8.43
2022-09-02T16:42:05.778Z,8.20
2022-09-02T16:44:35.800Z,8.37
2022-09-02T16:47:04.324Z,8.30
2022-09-02T16:49:34.482Z,8.50
2022-09-02T16:52:02.899Z,8.40
2022-09-02T16:54:32.997Z,8.63
2022-09-02T16:57:06.240Z,8.33
2022-09-02T16:59:34.625Z,8.60
2022-09-02T17:02:03.034Z,8.60
2022-09-02T17:04:31.363Z,8.60
2022-09-02T17:06:59.980Z,8.77
2022-09-02T17:09:28.349Z,8.60
2022-09-02T17:11:56.658Z,8.60
2022-09-02T17:14:26.392Z,8.90
2022-09-02T17:16:54.810Z,8.30
2022-09-02T17:19:27.171Z,8.40
2022-09-02T17:21:58.415Z,8.47
2022-09-02T17:24:30.707Z,8.30
2022-09-02T17:27:00.518Z,8.43
2022-09-02T17:32:19.740Z,8.43
2022-09-02T17:34:50.246Z,8.60
2022-09-02T17:37:18.660Z,8.70
2022-09-02T17:39:47.146Z,8.40
2022-09-02T17:42:15.315Z,8.80
2022-09-02T17:44:45.079Z,8.40
2022-09-02T17:47:18.705Z,8.60
2022-09-02T17:49:48.331Z,8.80
2022-09-02T17:52:19.644Z,8.87
2022-09-02T17:54:50.905Z,9.00
2022-09-02T17:57:33.584Z,9.23
2022-09-02T18:00:12.071Z,9.07
2022-09-02T18:03:00.241Z,9.03
2022-09-02T18:05:33.512Z,9.70
2022-09-02T18:08:10.292Z,9.80
2022-09-02T18:10:41.680Z,9.83
2022-09-02T18:13:14.349Z,9.93
2022-09-02T18:15:58.088Z,10.07
2022-09-02T18:18:28.397Z,10.20
2022-09-02T18:21:04.858Z,9.70
2022-09-02T18:23:55.285Z,9.90
2022-09-02T18:26:36.586Z,9.47
2022-09-02T18:29:16.259Z,9.70
2022-09-02T18:31:57.696Z,9.77
2022-09-02T18:34:41.773Z,9.40
2022-09-02T18:37:17.545Z,9.30
2022-09-02T18:40:03.309Z,9.40
2022-09-02T18:42:45.361Z,9.10
2022-09-02T18:45:22.703Z,9.47
2022-09-02T18:47:57.845Z,9.73
2022-09-02T18:50:49.985Z,9.30
2022-09-02T18:53:24.327Z,9.47
2022-09-02T18:55:54.584Z,9.40
2022-09-02T18:58:37.738Z,9.47
2022-09-02T19:01:12.508Z,9.70
2022-09-02T19:03:42.274Z,9.80
2022-09-02T19:06:24.236Z,10.00
2022-09-02T19:08:57.743Z,10.00
2022-09-02T19:11:27.356Z,9.73
2022-09-02T19:14:00.843Z,9.90
2022-09-02T19:16:34.438Z,14.03
2022-09-02T19:19:05.216Z,12.53
2022-09-02T19:21:37.783Z,18.60
2022-09-02T19:24:10.169Z,47.83
2022-09-02T19:26:39.475Z,51.63
2022-09-02T19:29:08.608Z,48.07
2022-09-02T19:31:42.420Z,55.07
2022-09-02T19:34:13.548Z,38.53
2022-09-02T19:36:46.272Z,32.67
2022-09-02T19:39:14.644Z,29.40
2022-09-02T19:41:43.080Z,27.43
2022-09-02T19:44:14.284Z,26.30
2022-09-02T19:49:34.570Z,20.77
2022-09-02T19:52:03.254Z,16.70
2022-09-02T19:54:32.392Z,15.80
2022-09-02T19:57:01.127Z,14.80
2022-09-02T19:59:29.659Z,13.60
2022-09-02T20:01:58.694Z,12.97
2022-09-02T20:04:29.798Z,11.90
2022-09-02T20:07:02.520Z,11.90
2022-09-02T20:09:32.412Z,11.27
2022-09-02T20:12:02.172Z,11.60
2022-09-02T20:14:31.486Z,13.10
2022-09-02T20:17:05.125Z,13.00
2022-09-02T20:19:34.857Z,12.90
2022-09-02T20:22:05.906Z,14.17
2022-09-02T20:24:37.438Z,12.83
2022-09-02T20:27:21.871Z,15.00
2022-09-02T20:30:08.940Z,13.60
2022-09-02T20:32:46.214Z,13.03
2022-09-02T20:35:44.115Z,13.43
2022-09-02T20:38:32.890Z,12.30
2022-09-02T20:41:10.870Z,12.63
2022-09-02T20:44:04.760Z,11.80
2022-09-02T20:46:53.805Z,11.03
2022-09-02T20:49:57.587Z,12.53
2022-09-02T20:52:38.294Z,11.13
2022-09-02T20:55:16.535Z,10.50
2022-09-02T20:58:17.993Z,10.50
2022-09-02T21:01:03.568Z,10.60
2022-09-02T21:03:42.179Z,11.00
2022-09-02T21:06:12.295Z,10.70
2022-09-02T21:08:50.068Z,10.40
2022-09-02T21:11:29.627Z,10.93
2022-09-02T21:14:07.548Z,10.60
2022-09-02T21:16:40.239Z,10.47
2022-09-02T21:19:16.146Z,10.13
2022-09-02T21:21:51.436Z,10.43
2022-09-02T21:24:28.148Z,10.10
2022-09-02T21:27:06.245Z,10.20
2022-09-02T21:29:43.795Z,10.50
2022-09-02T21:32:21.171Z,10.57
2022-09-02T21:34:56.342Z,10.00
2022-09-02T21:37:26.607Z,9.93
2022-09-02T21:39:58.793Z,10.07
2022-09-02T21:42:42.233Z,9.80
2022-09-02T21:45:18.936Z,10.07
2022-09-02T21:47:59.573Z,10.10
2022-09-02T21:50:43.977Z,9.90
2022-09-02T21:53:22.814Z,10.10
2022-09-02T21:56:04.390Z,10.00
2022-09-02T21:59:06.727Z,13.90
2022-09-02T22:01:45.236Z,9.83
2022-09-02T22:04:29.068Z,9.73
2022-09-02T22:07:07.158Z,9.87
2022-09-02T22:09:35.883Z,9.90
2022-09-02T22:12:09.542Z,10.17
2022-09-02T22:14:48.177Z,10.10
2022-09-02T22:17:26.289Z,10.07
2022-09-02T22:19:59.293Z,10.37
2022-09-02T22:22:31.964Z,10.30
2022-09-02T22:25:00.295Z,10.00
2022-09-02T22:27:34.248Z,10.20
2022-09-02T22:30:08.997Z,10.00
2022-09-02T22:32:41.871Z,10.50
2022-09-02T22:35:24.855Z,10.13
2022-09-02T22:38:00.941Z,10.43
2022-09-02T22:40:35.333Z,10.10
2022-09-02T22:43:20.120Z,10.20
2022-09-02T22:46:15.075Z,10.20
2022-09-02T22:49:09.497Z,9.97
2022-09-02T22:52:19.014Z,10.33
2022-09-02T22:54:48.276Z,10.13
2022-09-02T22:57:33.947Z,10.37
2022-09-02T23:00:10.407Z,10.17
2022-09-02T23:02:47.558Z,10.40
2022-09-02T23:05:45.564Z,10.03
2022-09-02T23:08:17.468Z,9.80
2022-09-02T23:10:54.242Z,9.90
2022-09-02T23:13:39.227Z,10.10
2022-09-02T23:16:20.058Z,9.90
2022-09-02T23:19:06.220Z,9.90
2022-09-02T23:21:41.634Z,10.10
2022-09-02T23:24:19.979Z,10.10
2022-09-02T23:26:59.442Z,10.00
2022-09-02T23:29:35.646Z,10.20
2022-09-02T23:32:43.406Z,10.37
2022-09-02T23:35:23.881Z,10.00
2022-09-02T23:38:19.403Z,9.80
2022-09-02T23:40:52.928Z,10.00
2022-09-02T23:43:22.108Z,10.33
2022-09-02T23:45:50.461Z,10.37
2022-09-02T23:48:37.820Z,10.40
2022-09-02T23:51:19.222Z,10.00
2022-09-02T23:54:12.985Z,10.43
2022-09-02T23:57:02.647Z,9.97
2022-09-02T23:59:55.152Z,10.13
